sensor_id;sensor_type;location;lat;lon;timestamp;P1;durP1;ratioP1;P2;durP2;ratioP2
1613;SDS011;800;48.824;9.346;2022-10-31T00:02:20;10.70;;;7.13;;
1613;SDS011;800;48.824;9.346;2022-10-31T00:04:46;9.03;;;6.60;;
1613;SDS011;800;48.824;9.346;2022-10-31T00:07:12;9.53;;;6.67;;
1613;SDS011;800;48.824;9.346;2022-10-31T00:09:37;10.50;;;6.47;;
1613;SDS011;800;48.824;9.346;2022-10-31T00:12:03;12.00;;;7.07;;
1613;SDS011;800;48.824;9.346;2022-10-31T00:14:28;8.97;;;6.67;;
1613;SDS011;800;48.824;9.346;2022-10-31T00:16:54;9.23;;;6.40;;
1613;SDS011;800;48.824;9.346;2022-10-31T00:19:20;7.27;;;6.57;;
1613;SDS011;800;48.824;9.346;2022-10-31T00:21:45;8.53;;;6.40;;
1613;SDS011;800;48.824;9.346;2022-10-31T00:24:11;8.17;;;6.10;;
1613;SDS011;800;48.824;9.346;2022-10-31T00:26:36;7.37;;;5.93;;
1613;SDS011;800;48.824;9.346;2022-10-31T00:29:02;8.40;;;5.83;;
1613;SDS011;800;48.824;9.346;2022-10-31T00:31:28;7.50;;;6.17;;
1613;SDS011;800;48.824;9.346;2022-10-31T00:33:54;7.53;;;6.47;;
1613;SDS011;800;48.824;9.346;2022-10-31T00:36:20;10.20;;;6.50;;
1613;SDS011;800;48.824;9.346;2022-10-31T00:38:46;10.80;;;6.00;;
1613;SDS011;800;48.824;9.346;2022-10-31T00:41:13;11.53;;;6.43;;
1613;SDS011;800;48.824;9.346;2022-10-31T00:43:40;9.20;;;5.83;;
1613;SDS011;800;48.824;9.346;2022-10-31T00:46:09;10.20;;;6.17;;
1613;SDS011;800;48.824;9.346;2022-10-31T00:48:36;9.30;;;6.00;;
1613;SDS011;800;48.824;9.346;2022-10-31T00:51:01;7.80;;;5.13;;
1613;SDS011;800;48.824;9.346;2022-10-31T00:53:27;10.20;;;5.60;;
1613;SDS011;800;48.824;9.346;2022-10-31T00:55:52;7.53;;;6.20;;
1613;SDS011;800;48.824;9.346;2022-10-31T00:58:18;13.60;;;5.97;;
1613;SDS011;800;48.824;9.346;2022-10-31T01:00:44;6.80;;;5.27;;
1613;SDS011;800;48.824;9.346;2022-10-31T01:03:11;6.93;;;5.97;;
1613;SDS011;800;48.824;9.346;2022-10-31T01:05:37;11.63;;;5.50;;
1613;SDS011;800;48.824;9.346;2022-10-31T01:08:02;10.67;;;6.20;;
1613;SDS011;800;48.824;9.346;2022-10-31T01:10:28;8.37;;;5.73;;
1613;SDS011;800;48.824;9.346;2022-10-31T01:12:54;7.53;;;6.27;;
1613;SDS011;800;48.824;9.346;2022-10-31T01:15:20;8.80;;;6.40;;
1613;SDS011;800;48.824;9.346;2022-10-31T01:17:47;8.40;;;6.40;;
1613;SDS011;800;48.824;9.346;2022-10-31T01:20:13;10.10;;;5.90;;
1613;SDS011;800;48.824;9.346;2022-10-31T01:22:40;7.30;;;5.60;;
1613;SDS011;800;48.824;9.346;2022-10-31T01:25:06;8.80;;;6.43;;
1613;SDS011;800;48.824;9.346;2022-10-31T01:27:33;9.63;;;6.17;;
1613;SDS011;800;48.824;9.346;2022-10-31T01:29:59;8.40;;;5.93;;
1613;SDS011;800;48.824;9.346;2022-10-31T01:32:24;5.43;;;4.93;;
1613;SDS011;800;48.824;9.346;2022-10-31T01:34:51;6.93;;;5.60;;
1613;SDS011;800;48.824;9.346;2022-10-31T01:37:17;7.13;;;5.70;;
1613;SDS011;800;48.824;9.346;2022-10-31T01:39:42;13.97;;;5.60;;
1613;SDS011;800;48.824;9.346;2022-10-31T01:42:10;7.53;;;5.20;;
1613;SDS011;800;48.824;9.346;2022-10-31T01:47:15;6.80;;;5.50;;
1613;SDS011;800;48.824;9.346;2022-10-31T01:52:18;7.40;;;6.10;;
1613;SDS011;800;48.824;9.346;2022-10-31T01:55:00;11.53;;;5.70;;
1613;SDS011;800;48.824;9.346;2022-10-31T01:57:30;5.93;;;5.00;;
1613;SDS011;800;48.824;9.346;2022-10-31T01:59:58;9.33;;;5.50;;
1613;SDS011;800;48.824;9.346;2022-10-31T02:02:26;6.90;;;4.93;;
1613;SDS011;800;48.824;9.346;2022-10-31T02:04:55;10.53;;;5.33;;
1613;SDS011;800;48.824;9.346;2022-10-31T02:07:26;7.63;;;5.70;;
1613;SDS011;800;48.824;9.346;2022-10-31T02:10:04;6.43;;;5.20;;
1613;SDS011;800;48.824;9.346;2022-10-31T02:12:30;9.20;;;6.20;;
1613;SDS011;800;48.824;9.346;2022-10-31T02:14:58;9.23;;;5.30;;
1613;SDS011;800;48.824;9.346;2022-10-31T02:17:24;12.17;;;5.80;;
1613;SDS011;800;48.824;9.346;2022-10-31T02:33:43;8.33;;;5.00;;
1613;SDS011;800;48.824;9.346;2022-10-31T02:36:27;10.30;;;5.37;;
1613;SDS011;800;48.824;9.346;2022-10-31T02:47:07;6.40;;;4.50;;
1613;SDS011;800;48.824;9.346;2022-10-31T02:49:43;9.40;;;5.33;;
1613;SDS011;800;48.824;9.346;2022-10-31T02:52:27;7.73;;;5.70;;
1613;SDS011;800;48.824;9.346;2022-10-31T02:54:53;5.83;;;5.07;;
1613;SDS011;800;48.824;9.346;2022-10-31T02:57:20;9.00;;;4.57;;
1613;SDS011;800;48.824;9.346;2022-10-31T02:59:54;5.50;;;4.70;;
1613;SDS011;800;48.824;9.346;2022-10-31T03:02:28;7.70;;;5.27;;
1613;SDS011;800;48.824;9.346;2022-10-31T03:10:39;5.57;;;4.50;;
1613;SDS011;800;48.824;9.346;2022-10-31T03:15:46;7.17;;;5.13;;
1613;SDS011;800;48.824;9.346;2022-10-31T03:21:14;6.33;;;4.90;;
1613;SDS011;800;48.824;9.346;2022-10-31T03:23:45;11.70;;;5.70;;
1613;SDS011;800;48.824;9.346;2022-10-31T03:26:13;6.10;;;4.63;;
1613;SDS011;800;48.824;9.346;2022-10-31T03:28:42;12.10;;;5.03;;
1613;SDS011;800;48.824;9.346;2022-10-31T03:31:16;9.53;;;5.67;;
1613;SDS011;800;48.824;9.346;2022-10-31T03:33:43;4.60;;;4.20;;
1613;SDS011;800;48.824;9.346;2022-10-31T03:36:11;8.63;;;4.47;;
1613;SDS011;800;48.824;9.346;2022-10-31T03:38:38;7.57;;;5.73;;
1613;SDS011;800;48.824;9.346;2022-10-31T03:41:06;6.50;;;4.80;;
1613;SDS011;800;48.824;9.346;2022-10-31T03:43:37;6.00;;;4.90;;
1613;SDS011;800;48.824;9.346;2022-10-31T03:46:07;6.00;;;4.70;;
1613;SDS011;800;48.824;9.346;2022-10-31T03:48:33;6.60;;;5.03;;
1613;SDS011;800;48.824;9.346;2022-10-31T03:53:32;6.30;;;4.97;;
1613;SDS011;800;48.824;9.346;2022-10-31T03:56:05;8.27;;;5.30;;
1613;SDS011;800;48.824;9.346;2022-10-31T03:58:37;4.63;;;4.20;;
1613;SDS011;800;48.824;9.346;2022-10-31T04:01:14;7.87;;;5.10;;
1613;SDS011;800;48.824;9.346;2022-10-31T04:03:43;5.40;;;5.00;;
1613;SDS011;800;48.824;9.346;2022-10-31T04:06:10;7.80;;;5.23;;
1613;SDS011;800;48.824;9.346;2022-10-31T04:08:46;6.23;;;4.67;;
1613;SDS011;800;48.824;9.346;2022-10-31T04:11:16;9.10;;;4.80;;
1613;SDS011;800;48.824;9.346;2022-10-31T04:13:45;12.23;;;4.83;;
1613;SDS011;800;48.824;9.346;2022-10-31T04:16:13;6.07;;;4.70;;
1613;SDS011;800;48.824;9.346;2022-10-31T04:18:40;8.07;;;4.40;;
1613;SDS011;800;48.824;9.346;2022-10-31T04:21:06;11.40;;;4.67;;
1613;SDS011;800;48.824;9.346;2022-10-31T04:23:33;8.10;;;4.57;;
1613;SDS011;800;48.824;9.346;2022-10-31T04:26:00;10.23;;;5.10;;
1613;SDS011;800;48.824;9.346;2022-10-31T04:28:26;5.47;;;4.97;;
1613;SDS011;800;48.824;9.346;2022-10-31T04:30:52;6.23;;;5.00;;
1613;SDS011;800;48.824;9.346;2022-10-31T04:33:18;7.30;;;5.00;;
1613;SDS011;800;48.824;9.346;2022-10-31T04:35:43;7.13;;;5.30;;
1613;SDS011;800;48.824;9.346;2022-10-31T04:38:09;8.83;;;5.30;;
1613;SDS011;800;48.824;9.346;2022-10-31T04:40:35;6.43;;;5.33;;
1613;SDS011;800;48.824;9.346;2022-10-31T04:43:00;9.13;;;4.47;;
1613;SDS011;800;48.824;9.346;2022-10-31T04:45:26;8.57;;;5.20;;
1613;SDS011;800;48.824;9.346;2022-10-31T04:47:51;6.57;;;4.67;;
1613;SDS011;800;48.824;9.346;2022-10-31T04:50:17;7.80;;;5.30;;
1613;SDS011;800;48.824;9.346;2022-10-31T04:52:43;9.63;;;5.03;;
1613;SDS011;800;48.824;9.346;2022-10-31T04:55:10;6.83;;;4.83;;
1613;SDS011;800;48.824;9.346;2022-10-31T04:57:40;8.63;;;4.40;;
1613;SDS011;800;48.824;9.346;2022-10-31T05:00:10;7.37;;;4.40;;
1613;SDS011;800;48.824;9.346;2022-10-31T05:02:45;5.50;;;4.00;;
1613;SDS011;800;48.824;9.346;2022-10-31T05:05:12;11.23;;;4.50;;
1613;SDS011;800;48.824;9.346;2022-10-31T05:07:39;10.37;;;5.60;;
1613;SDS011;800;48.824;9.346;2022-10-31T05:10:06;13.57;;;4.90;;
1613;SDS011;800;48.824;9.346;2022-10-31T05:12:34;5.80;;;4.40;;
1613;SDS011;800;48.824;9.346;2022-10-31T05:15:00;6.20;;;4.97;;
1613;SDS011;800;48.824;9.346;2022-10-31T05:17:26;5.27;;;4.40;;
1613;SDS011;800;48.824;9.346;2022-10-31T05:19:51;6.47;;;4.30;;
1613;SDS011;800;48.824;9.346;2022-10-31T05:22:17;5.27;;;4.50;;
1613;SDS011;800;48.824;9.346;2022-10-31T05:24:42;7.13;;;4.30;;
1613;SDS011;800;48.824;9.346;2022-10-31T05:27:08;5.20;;;4.53;;
1613;SDS011;800;48.824;9.346;2022-10-31T05:29:33;7.40;;;4.70;;
1613;SDS011;800;48.824;9.346;2022-10-31T05:31:59;5.30;;;4.20;;
1613;SDS011;800;48.824;9.346;2022-10-31T05:34:24;6.60;;;6.00;;
1613;SDS011;800;48.824;9.346;2022-10-31T05:36:50;6.50;;;5.60;;
1613;SDS011;800;48.824;9.346;2022-10-31T05:39:16;5.77;;;4.10;;
1613;SDS011;800;48.824;9.346;2022-10-31T05:41:41;6.77;;;5.53;;
1613;SDS011;800;48.824;9.346;2022-10-31T05:44:07;8.13;;;5.30;;
1613;SDS011;800;48.824;9.346;2022-10-31T05:46:32;6.60;;;5.03;;
1613;SDS011;800;48.824;9.346;2022-10-31T05:48:58;6.60;;;4.50;;
1613;SDS011;800;48.824;9.346;2022-10-31T05:51:24;9.20;;;5.30;;
1613;SDS011;800;48.824;9.346;2022-10-31T05:53:49;7.23;;;4.90;;
1613;SDS011;800;48.824;9.346;2022-10-31T05:56:15;5.40;;;4.90;;
1613;SDS011;800;48.824;9.346;2022-10-31T05:58:40;8.50;;;4.57;;
1613;SDS011;800;48.824;9.346;2022-10-31T06:01:06;10.20;;;4.50;;
1613;SDS011;800;48.824;9.346;2022-10-31T06:03:31;8.50;;;4.73;;
1613;SDS011;800;48.824;9.346;2022-10-31T06:05:57;7.77;;;4.77;;
1613;SDS011;800;48.824;9.346;2022-10-31T06:08:23;6.10;;;4.63;;
1613;SDS011;800;48.824;9.346;2022-10-31T06:10:48;7.20;;;4.90;;
1613;SDS011;800;48.824;9.346;2022-10-31T06:13:14;6.00;;;5.00;;
1613;SDS011;800;48.824;9.346;2022-10-31T06:15:40;7.47;;;5.07;;
1613;SDS011;800;48.824;9.346;2022-10-31T06:18:07;8.80;;;4.50;;
1613;SDS011;800;48.824;9.346;2022-10-31T06:20:33;10.70;;;5.50;;
1613;SDS011;800;48.824;9.346;2022-10-31T06:22:59;7.77;;;6.10;;
1613;SDS011;800;48.824;9.346;2022-10-31T06:25:25;11.60;;;5.90;;
1613;SDS011;800;48.824;9.346;2022-10-31T06:27:51;8.43;;;5.13;;
1613;SDS011;800;48.824;9.346;2022-10-31T06:30:16;10.43;;;5.77;;
1613;SDS011;800;48.824;9.346;2022-10-31T06:32:42;12.43;;;6.00;;
1613;SDS011;800;48.824;9.346;2022-10-31T06:35:08;11.50;;;6.27;;
1613;SDS011;800;48.824;9.346;2022-10-31T06:37:33;7.53;;;5.40;;
1613;SDS011;800;48.824;9.346;2022-10-31T06:39:59;7.67;;;5.03;;
1613;SDS011;800;48.824;9.346;2022-10-31T06:42:24;6.50;;;5.07;;
1613;SDS011;800;48.824;9.346;2022-10-31T06:44:50;6.00;;;5.00;;
1613;SDS011;800;48.824;9.346;2022-10-31T06:47:16;5.50;;;4.80;;
1613;SDS011;800;48.824;9.346;2022-10-31T06:49:41;9.83;;;6.00;;
1613;SDS011;800;48.824;9.346;2022-10-31T06:52:07;6.47;;;5.27;;
1613;SDS011;800;48.824;9.346;2022-10-31T06:54:32;7.60;;;5.10;;
1613;SDS011;800;48.824;9.346;2022-10-31T06:56:58;6.23;;;4.53;;
1613;SDS011;800;48.824;9.346;2022-10-31T06:59:23;8.73;;;4.87;;
1613;SDS011;800;48.824;9.346;2022-10-31T07:01:49;4.90;;;4.40;;
1613;SDS011;800;48.824;9.346;2022-10-31T07:04:15;9.87;;;5.47;;
1613;SDS011;800;48.824;9.346;2022-10-31T07:06:40;7.17;;;5.03;;
1613;SDS011;800;48.824;9.346;2022-10-31T07:09:06;6.10;;;4.60;;
1613;SDS011;800;48.824;9.346;2022-10-31T07:11:32;9.43;;;5.00;;
1613;SDS011;800;48.824;9.346;2022-10-31T07:13:57;6.20;;;5.13;;
1613;SDS011;800;48.824;9.346;2022-10-31T07:16:24;7.37;;;4.83;;
1613;SDS011;800;48.824;9.346;2022-10-31T07:18:50;7.40;;;4.50;;
1613;SDS011;800;48.824;9.346;2022-10-31T07:21:16;5.80;;;4.60;;
1613;SDS011;800;48.824;9.346;2022-10-31T07:23:41;13.33;;;4.70;;
1613;SDS011;800;48.824;9.346;2022-10-31T07:26:07;6.70;;;4.70;;
1613;SDS011;800;48.824;9.346;2022-10-31T07:28:34;9.80;;;4.20;;
1613;SDS011;800;48.824;9.346;2022-10-31T07:31:00;6.90;;;5.20;;
1613;SDS011;800;48.824;9.346;2022-10-31T07:33:26;10.10;;;5.57;;
1613;SDS011;800;48.824;9.346;2022-10-31T07:35:51;5.03;;;4.53;;
1613;SDS011;800;48.824;9.346;2022-10-31T07:38:18;5.10;;;4.10;;
1613;SDS011;800;48.824;9.346;2022-10-31T07:40:43;5.80;;;3.97;;
1613;SDS011;800;48.824;9.346;2022-10-31T07:43:14;8.63;;;5.03;;
1613;SDS011;800;48.824;9.346;2022-10-31T07:45:39;6.47;;;4.23;;
1613;SDS011;800;48.824;9.346;2022-10-31T07:48:05;8.53;;;4.40;;
1613;SDS011;800;48.824;9.346;2022-10-31T07:50:32;5.90;;;4.60;;
1613;SDS011;800;48.824;9.346;2022-10-31T07:53:04;5.40;;;4.80;;
1613;SDS011;800;48.824;9.346;2022-10-31T07:55:35;7.93;;;4.40;;
1613;SDS011;800;48.824;9.346;2022-10-31T07:58:03;8.20;;;5.33;;
1613;SDS011;800;48.824;9.346;2022-10-31T08:00:30;6.23;;;4.67;;
1613;SDS011;800;48.824;9.346;2022-10-31T08:02:58;6.30;;;4.60;;
1613;SDS011;800;48.824;9.346;2022-10-31T08:05:24;5.17;;;4.60;;
1613;SDS011;800;48.824;9.346;2022-10-31T08:07:50;7.20;;;4.50;;
1613;SDS011;800;48.824;9.346;2022-10-31T08:10:15;6.53;;;4.70;;
1613;SDS011;800;48.824;9.346;2022-10-31T08:12:41;5.40;;;4.53;;
1613;SDS011;800;48.824;9.346;2022-10-31T08:15:07;7.20;;;4.77;;
1613;SDS011;800;48.824;9.346;2022-10-31T08:17:36;5.90;;;5.10;;
1613;SDS011;800;48.824;9.346;2022-10-31T08:20:02;8.03;;;5.10;;
1613;SDS011;800;48.824;9.346;2022-10-31T08:22:29;6.67;;;4.00;;
1613;SDS011;800;48.824;9.346;2022-10-31T08:24:54;6.50;;;4.90;;
1613;SDS011;800;48.824;9.346;2022-10-31T08:27:20;7.23;;;4.93;;
1613;SDS011;800;48.824;9.346;2022-10-31T08:29:45;8.00;;;5.60;;
1613;SDS011;800;48.824;9.346;2022-10-31T08:32:11;10.80;;;5.63;;
1613;SDS011;800;48.824;9.346;2022-10-31T08:34:36;8.90;;;5.57;;
1613;SDS011;800;48.824;9.346;2022-10-31T08:37:02;10.60;;;6.30;;
1613;SDS011;800;48.824;9.346;2022-10-31T08:39:29;10.17;;;6.13;;
1613;SDS011;800;48.824;9.346;2022-10-31T08:41:54;9.73;;;6.50;;
1613;SDS011;800;48.824;9.346;2022-10-31T08:44:20;10.63;;;6.40;;
1613;SDS011;800;48.824;9.346;2022-10-31T08:46:46;8.90;;;7.57;;
1613;SDS011;800;48.824;9.346;2022-10-31T08:49:11;6.10;;;5.50;;
1613;SDS011;800;48.824;9.346;2022-10-31T08:51:37;10.50;;;7.50;;
1613;SDS011;800;48.824;9.346;2022-10-31T08:54:02;11.03;;;6.50;;
1613;SDS011;800;48.824;9.346;2022-10-31T08:56:28;8.33;;;6.67;;
1613;SDS011;800;48.824;9.346;2022-10-31T08:58:54;12.67;;;6.63;;
1613;SDS011;800;48.824;9.346;2022-10-31T09:01:19;11.63;;;8.13;;
1613;SDS011;800;48.824;9.346;2022-10-31T09:03:45;11.50;;;7.00;;
1613;SDS011;800;48.824;9.346;2022-10-31T09:06:10;8.80;;;6.90;;
1613;SDS011;800;48.824;9.346;2022-10-31T09:08:36;8.10;;;6.60;;
1613;SDS011;800;48.824;9.346;2022-10-31T09:11:02;12.77;;;7.33;;
1613;SDS011;800;48.824;9.346;2022-10-31T09:13:29;11.03;;;7.20;;
1613;SDS011;800;48.824;9.346;2022-10-31T09:15:55;9.87;;;7.63;;
1613;SDS011;800;48.824;9.346;2022-10-31T09:18:22;10.30;;;8.13;;
1613;SDS011;800;48.824;9.346;2022-10-31T09:20:49;18.90;;;8.90;;
1613;SDS011;800;48.824;9.346;2022-10-31T09:23:19;10.03;;;6.83;;
1613;SDS011;800;48.824;9.346;2022-10-31T09:25:47;8.60;;;6.70;;
1613;SDS011;800;48.824;9.346;2022-10-31T09:28:15;8.67;;;6.43;;
1613;SDS011;800;48.824;9.346;2022-10-31T09:30:45;8.83;;;5.90;;
1613;SDS011;800;48.824;9.346;2022-10-31T09:33:12;8.97;;;5.47;;
1613;SDS011;800;48.824;9.346;2022-10-31T09:35:38;10.23;;;6.33;;
1613;SDS011;800;48.824;9.346;2022-10-31T09:38:15;10.70;;;6.10;;
1613;SDS011;800;48.824;9.346;2022-10-31T09:40:47;8.57;;;5.80;;
1613;SDS011;800;48.824;9.346;2022-10-31T09:48:55;8.70;;;5.90;;
1613;SDS011;800;48.824;9.346;2022-10-31T09:51:37;5.77;;;4.90;;
1613;SDS011;800;48.824;9.346;2022-10-31T09:54:16;8.60;;;5.87;;
1613;SDS011;800;48.824;9.346;2022-10-31T09:56:46;8.60;;;6.30;;
1613;SDS011;800;48.824;9.346;2022-10-31T09:59:26;7.20;;;5.50;;
1613;SDS011;800;48.824;9.346;2022-10-31T10:02:05;14.33;;;6.63;;
1613;SDS011;800;48.824;9.346;2022-10-31T10:07:27;11.00;;;5.93;;
1613;SDS011;800;48.824;9.346;2022-10-31T10:09:55;8.40;;;5.23;;
1613;SDS011;800;48.824;9.346;2022-10-31T10:12:36;12.47;;;5.73;;
1613;SDS011;800;48.824;9.346;2022-10-31T10:17:56;11.87;;;5.83;;
1613;SDS011;800;48.824;9.346;2022-10-31T10:26:10;9.63;;;5.77;;
1613;SDS011;800;48.824;9.346;2022-10-31T10:28:51;17.27;;;5.70;;
1613;SDS011;800;48.824;9.346;2022-10-31T10:31:33;18.93;;;6.77;;
1613;SDS011;800;48.824;9.346;2022-10-31T10:34:36;8.50;;;5.53;;
1613;SDS011;800;48.824;9.346;2022-10-31T10:37:09;7.80;;;5.30;;
1613;SDS011;800;48.824;9.346;2022-10-31T10:39:40;10.90;;;5.27;;
1613;SDS011;800;48.824;9.346;2022-10-31T10:42:12;8.63;;;6.17;;
1613;SDS011;800;48.824;9.346;2022-10-31T10:44:59;8.57;;;5.83;;
1613;SDS011;800;48.824;9.346;2022-10-31T10:47:47;9.53;;;5.90;;
1613;SDS011;800;48.824;9.346;2022-10-31T10:50:19;7.70;;;5.87;;
1613;SDS011;800;48.824;9.346;2022-10-31T10:52:56;8.10;;;5.30;;
1613;SDS011;800;48.824;9.346;2022-10-31T10:55:49;9.70;;;6.07;;
1613;SDS011;800;48.824;9.346;2022-10-31T10:58:21;6.47;;;5.70;;
1613;SDS011;800;48.824;9.346;2022-10-31T11:00:47;10.40;;;5.10;;
1613;SDS011;800;48.824;9.346;2022-10-31T11:03:14;10.80;;;4.40;;
1613;SDS011;800;48.824;9.346;2022-10-31T11:05:46;7.60;;;5.47;;
1613;SDS011;800;48.824;9.346;2022-10-31T11:08:28;8.90;;;5.63;;
1613;SDS011;800;48.824;9.346;2022-10-31T11:10:59;10.93;;;5.20;;
1613;SDS011;800;48.824;9.346;2022-10-31T11:13:27;8.50;;;5.60;;
1613;SDS011;800;48.824;9.346;2022-10-31T11:15:55;9.00;;;5.50;;
1613;SDS011;800;48.824;9.346;2022-10-31T11:18:28;9.13;;;5.43;;
1613;SDS011;800;48.824;9.346;2022-10-31T11:21:00;7.83;;;5.60;;
1613;SDS011;800;48.824;9.346;2022-10-31T11:23:27;7.50;;;5.37;;
1613;SDS011;800;48.824;9.346;2022-10-31T11:26:01;9.10;;;4.93;;
1613;SDS011;800;48.824;9.346;2022-10-31T11:28:29;12.60;;;6.90;;
1613;SDS011;800;48.824;9.346;2022-10-31T11:30:57;9.33;;;6.27;;
1613;SDS011;800;48.824;9.346;2022-10-31T11:36:13;7.73;;;5.90;;
1613;SDS011;800;48.824;9.346;2022-10-31T11:38:48;10.30;;;6.37;;
1613;SDS011;800;48.824;9.346;2022-10-31T11:41:18;8.80;;;5.77;;
1613;SDS011;800;48.824;9.346;2022-10-31T11:43:54;8.73;;;5.93;;
1613;SDS011;800;48.824;9.346;2022-10-31T11:46:27;9.07;;;5.73;;
1613;SDS011;800;48.824;9.346;2022-10-31T11:48:59;11.40;;;6.20;;
1613;SDS011;800;48.824;9.346;2022-10-31T11:51:26;6.40;;;5.20;;
1613;SDS011;800;48.824;9.346;2022-10-31T11:53:56;7.30;;;5.83;;
1613;SDS011;800;48.824;9.346;2022-10-31T11:56:23;6.43;;;5.10;;
1613;SDS011;800;48.824;9.346;2022-10-31T11:59:00;10.60;;;5.53;;
1613;SDS011;800;48.824;9.346;2022-10-31T12:01:30;9.20;;;6.40;;
1613;SDS011;800;48.824;9.346;2022-10-31T12:04:09;12.73;;;5.77;;
1613;SDS011;800;48.824;9.346;2022-10-31T12:06:39;9.40;;;6.17;;
1613;SDS011;800;48.824;9.346;2022-10-31T12:09:11;7.80;;;5.87;;
1613;SDS011;800;48.824;9.346;2022-10-31T12:17:16;8.80;;;5.60;;
1613;SDS011;800;48.824;9.346;2022-10-31T12:31:13;8.27;;;5.20;;
1613;SDS011;800;48.824;9.346;2022-10-31T12:39:18;6.97;;;5.20;;
1613;SDS011;800;48.824;9.346;2022-10-31T12:44:40;13.13;;;6.60;;
1613;SDS011;800;48.824;9.346;2022-10-31T12:47:26;10.83;;;7.47;;
1613;SDS011;800;48.824;9.346;2022-10-31T12:56:22;11.10;;;8.70;;
1613;SDS011;800;48.824;9.346;2022-10-31T13:01:43;12.27;;;6.70;;
1613;SDS011;800;48.824;9.346;2022-10-31T13:06:59;13.77;;;8.13;;
1613;SDS011;800;48.824;9.346;2022-10-31T13:09:31;13.37;;;8.70;;
1613;SDS011;800;48.824;9.346;2022-10-31T13:12:10;10.30;;;7.93;;
1613;SDS011;800;48.824;9.346;2022-10-31T13:14:44;8.93;;;7.10;;
1613;SDS011;800;48.824;9.346;2022-10-31T13:17:29;15.07;;;8.10;;
1613;SDS011;800;48.824;9.346;2022-10-31T13:21:02;16.43;;;7.80;;
1613;SDS011;800;48.824;9.346;2022-10-31T13:23:04;8.83;;;7.00;;
1613;SDS011;800;48.824;9.346;2022-10-31T13:25:33;15.10;;;8.23;;
1613;SDS011;800;48.824;9.346;2022-10-31T13:31:02;10.80;;;8.20;;
1613;SDS011;800;48.824;9.346;2022-10-31T13:38:54;8.20;;;6.37;;
1613;SDS011;800;48.824;9.346;2022-10-31T13:46:40;10.40;;;5.60;;
1613;SDS011;800;48.824;9.346;2022-10-31T13:49:24;9.03;;;5.90;;
1613;SDS011;800;48.824;9.346;2022-10-31T13:52:05;9.73;;;6.00;;
1613;SDS011;800;48.824;9.346;2022-10-31T13:54:35;12.87;;;6.20;;
1613;SDS011;800;48.824;9.346;2022-10-31T13:57:06;10.83;;;5.60;;
1613;SDS011;800;48.824;9.346;2022-10-31T13:59:45;10.00;;;4.60;;
1613;SDS011;800;48.824;9.346;2022-10-31T14:02:17;11.77;;;5.10;;
1613;SDS011;800;48.824;9.346;2022-10-31T14:04:52;13.20;;;5.47;;
1613;SDS011;800;48.824;9.346;2022-10-31T14:07:22;11.37;;;5.40;;
1613;SDS011;800;48.824;9.346;2022-10-31T14:12:30;10.80;;;5.00;;
1613;SDS011;800;48.824;9.346;2022-10-31T14:15:16;11.23;;;5.50;;
1613;SDS011;800;48.824;9.346;2022-10-31T14:20:44;6.57;;;5.20;;
1613;SDS011;800;48.824;9.346;2022-10-31T14:28:54;6.53;;;5.20;;
1613;SDS011;800;48.824;9.346;2022-10-31T14:33:57;10.10;;;6.17;;
1613;SDS011;800;48.824;9.346;2022-10-31T14:36:43;8.57;;;6.43;;
1613;SDS011;800;48.824;9.346;2022-10-31T14:45:06;7.97;;;6.47;;
1613;SDS011;800;48.824;9.346;2022-10-31T14:50:40;9.87;;;7.50;;
1613;SDS011;800;48.824;9.346;2022-10-31T14:53:25;9.67;;;6.97;;
1613;SDS011;800;48.824;9.346;2022-10-31T14:55:55;13.10;;;8.00;;
1613;SDS011;800;48.824;9.346;2022-10-31T14:58:38;11.23;;;7.70;;
1613;SDS011;800;48.824;9.346;2022-10-31T15:01:15;7.73;;;6.40;;
1613;SDS011;800;48.824;9.346;2022-10-31T15:03:48;10.37;;;7.13;;
1613;SDS011;800;48.824;9.346;2022-10-31T15:06:14;11.43;;;6.20;;
1613;SDS011;800;48.824;9.346;2022-10-31T15:11:19;11.80;;;6.03;;
1613;SDS011;800;48.824;9.346;2022-10-31T15:16:26;9.20;;;6.67;;
1613;SDS011;800;48.824;9.346;2022-10-31T15:19:02;11.83;;;6.67;;
1613;SDS011;800;48.824;9.346;2022-10-31T15:21:30;10.40;;;7.07;;
1613;SDS011;800;48.824;9.346;2022-10-31T15:23:58;10.00;;;6.77;;
1613;SDS011;800;48.824;9.346;2022-10-31T15:26:31;9.23;;;5.80;;
1613;SDS011;800;48.824;9.346;2022-10-31T15:29:04;8.00;;;5.87;;
1613;SDS011;800;48.824;9.346;2022-10-31T15:31:31;14.30;;;7.70;;
1613;SDS011;800;48.824;9.346;2022-10-31T15:34:05;7.47;;;6.50;;
1613;SDS011;800;48.824;9.346;2022-10-31T15:36:39;10.87;;;7.23;;
1613;SDS011;800;48.824;9.346;2022-10-31T15:39:05;12.60;;;8.30;;
1613;SDS011;800;48.824;9.346;2022-10-31T15:41:35;22.13;;;14.20;;
1613;SDS011;800;48.824;9.346;2022-10-31T15:44:15;26.10;;;14.90;;
1613;SDS011;800;48.824;9.346;2022-10-31T15:46:51;19.67;;;13.90;;
1613;SDS011;800;48.824;9.346;2022-10-31T15:49:29;23.03;;;16.17;;
1613;SDS011;800;48.824;9.346;2022-10-31T15:52:04;33.43;;;21.07;;
1613;SDS011;800;48.824;9.346;2022-10-31T15:54:36;25.93;;;19.87;;
1613;SDS011;800;48.824;9.346;2022-10-31T15:57:10;20.47;;;16.07;;
1613;SDS011;800;48.824;9.346;2022-10-31T15:59:37;19.50;;;14.90;;
1613;SDS011;800;48.824;9.346;2022-10-31T16:02:09;18.03;;;14.17;;
1613;SDS011;800;48.824;9.346;2022-10-31T16:04:36;14.27;;;12.40;;
1613;SDS011;800;48.824;9.346;2022-10-31T16:07:02;12.77;;;10.50;;
1613;SDS011;800;48.824;9.346;2022-10-31T16:09:49;12.73;;;10.63;;
1613;SDS011;800;48.824;9.346;2022-10-31T16:12:22;16.00;;;11.90;;
1613;SDS011;800;48.824;9.346;2022-10-31T16:14:50;10.83;;;9.40;;
1613;SDS011;800;48.824;9.346;2022-10-31T16:17:18;15.00;;;10.43;;
1613;SDS011;800;48.824;9.346;2022-10-31T16:19:51;11.57;;;10.47;;
1613;SDS011;800;48.824;9.346;2022-10-31T16:22:35;13.43;;;11.53;;
1613;SDS011;800;48.824;9.346;2022-10-31T16:25:23;19.40;;;12.33;;
1613;SDS011;800;48.824;9.346;2022-10-31T16:27:52;13.60;;;12.20;;
1613;SDS011;800;48.824;9.346;2022-10-31T16:33:00;18.57;;;10.10;;
1613;SDS011;800;48.824;9.346;2022-10-31T16:35:35;16.10;;;12.50;;
1613;SDS011;800;48.824;9.346;2022-10-31T16:38:02;13.93;;;11.43;;
1613;SDS011;800;48.824;9.346;2022-10-31T16:40:29;15.23;;;11.33;;
1613;SDS011;800;48.824;9.346;2022-10-31T16:42:56;16.93;;;12.13;;
1613;SDS011;800;48.824;9.346;2022-10-31T16:45:24;16.17;;;11.80;;
1613;SDS011;800;48.824;9.346;2022-10-31T16:47:51;17.23;;;11.13;;
1613;SDS011;800;48.824;9.346;2022-10-31T16:50:19;15.23;;;10.83;;
1613;SDS011;800;48.824;9.346;2022-10-31T16:52:46;12.50;;;10.23;;
1613;SDS011;800;48.824;9.346;2022-10-31T16:55:13;13.67;;;10.70;;
1613;SDS011;800;48.824;9.346;2022-10-31T16:57:41;18.90;;;11.80;;
1613;SDS011;800;48.824;9.346;2022-10-31T17:00:16;15.97;;;11.83;;
1613;SDS011;800;48.824;9.346;2022-10-31T17:02:44;17.63;;;11.77;;
1613;SDS011;800;48.824;9.346;2022-10-31T17:05:14;18.60;;;11.80;;
1613;SDS011;800;48.824;9.346;2022-10-31T17:07:41;17.40;;;12.23;;
1613;SDS011;800;48.824;9.346;2022-10-31T17:10:07;15.70;;;11.00;;
1613;SDS011;800;48.824;9.346;2022-10-31T17:12:34;20.60;;;10.97;;
1613;SDS011;800;48.824;9.346;2022-10-31T17:15:00;12.00;;;9.70;;
1613;SDS011;800;48.824;9.346;2022-10-31T17:17:26;13.60;;;9.37;;
1613;SDS011;800;48.824;9.346;2022-10-31T17:19:51;14.53;;;9.73;;
1613;SDS011;800;48.824;9.346;2022-10-31T17:22:17;14.80;;;11.60;;
1613;SDS011;800;48.824;9.346;2022-10-31T17:24:43;16.53;;;8.70;;
1613;SDS011;800;48.824;9.346;2022-10-31T17:27:09;12.37;;;9.57;;
1613;SDS011;800;48.824;9.346;2022-10-31T17:29:34;13.90;;;9.37;;
1613;SDS011;800;48.824;9.346;2022-10-31T17:32:00;13.60;;;8.53;;
1613;SDS011;800;48.824;9.346;2022-10-31T17:34:27;10.50;;;7.83;;
1613;SDS011;800;48.824;9.346;2022-10-31T17:36:53;10.13;;;8.03;;
1613;SDS011;800;48.824;9.346;2022-10-31T17:39:19;8.17;;;6.07;;
1613;SDS011;800;48.824;9.346;2022-10-31T17:41:44;9.03;;;7.50;;
1613;SDS011;800;48.824;9.346;2022-10-31T17:44:10;11.53;;;7.70;;
1613;SDS011;800;48.824;9.346;2022-10-31T17:46:36;8.70;;;7.57;;
1613;SDS011;800;48.824;9.346;2022-10-31T17:49:02;9.73;;;8.03;;
1613;SDS011;800;48.824;9.346;2022-10-31T17:51:30;9.07;;;7.93;;
1613;SDS011;800;48.824;9.346;2022-10-31T17:53:57;11.90;;;7.90;;
1613;SDS011;800;48.824;9.346;2022-10-31T17:56:22;11.37;;;8.30;;
1613;SDS011;800;48.824;9.346;2022-10-31T17:58:48;12.40;;;7.90;;